Time;durP1;ratioP1;P1;durP2;ratioP2;P2;SDS_P1;SDS_P2;PMS_P1;PMS_P2;Temp;Humidity;BMP_temperature;BMP_pressure;BME280_temperature;BME280_humidity;BME280_pressure;Samples;Min_cycle;Max_cycle;Signal;HPM_P1;HPM_P2
2021/04/16 00:00:58;;;;;;;9.43;8.52;;;;;;;;;;3546918;40;20385;-71
2021/04/16 00:03:25;;;;;;;9.75;8.75;;;;;;;;;;3546697;40;20460;-72
2021/04/16 00:05:51;;;;;;;10.05;9.00;;;;;;;;;;3546683;40;20405;-73
2021/04/16 00:08:18;;;;;;;9.20;8.30;;;;;;;;;;3547504;40;20393;-72
2021/04/16 00:10:46;;;;;;;9.23;8.27;;;;;;;;;;3549842;40;20389;-73
2021/04/16 00:13:14;;;;;;;9.73;8.80;;;;;;;;;;3546958;40;20385;-72
2021/04/16 00:15:40;;;;;;;9.10;8.20;;;;;;;;;;3545488;40;20377;-72
2021/04/16 00:18:10;;;;;;;9.50;8.25;;;;;;;;;;3546273;40;20387;-73
2021/04/16 00:20:37;;;;;;;8.80;8.00;;;;;;;;;;3544954;40;20438;-72
2021/04/16 00:23:03;;;;;;;9.07;7.97;;;;;;;;;;3546790;40;20428;-72
2021/04/16 00:25:30;;;;;;;8.65;7.78;;;;;;;;;;3545048;40;20409;-72
2021/04/16 00:27:57;;;;;;;8.85;7.70;;;;;;;;;;3545268;40;20520;-71
2021/04/16 00:30:24;;;;;;;9.15;7.97;;;;;;;;;;3546541;40;20391;-75
2021/04/16 00:32:51;;;;;;;7.85;7.00;;;;;;;;;;3546524;40;20384;-72
2021/04/16 00:35:18;;;;;;;9.30;8.35;;;;;;;;;;3545403;40;20409;-72
2021/04/16 00:37:44;;;;;;;8.77;7.90;;;;;;;;;;3553615;40;20408;-71
2021/04/16 00:40:12;;;;;;;9.77;8.77;;;;;;;;;;3546304;40;20377;-72
2021/04/16 00:42:39;;;;;;;11.05;9.95;;;;;;;;;;3546349;40;20471;-71
2021/04/16 00:45:07;;;;;;;9.85;8.85;;;;;;;;;;3545353;40;20458;-71
2021/04/16 00:47:33;;;;;;;9.35;8.50;;;;;;;;;;3546050;40;20412;-72
2021/04/16 00:50:03;;;;;;;9.10;8.20;;;;;;;;;;3546263;40;20377;-71
2021/04/16 00:52:32;;;;;;;8.93;8.02;;;6.10;99.90;;;;;;3546272;40;20473;-72
2021/04/16 00:54:59;;;;;;;8.38;7.57;;;;;;;;;;3537161;40;20393;-72
2021/04/16 00:57:25;;;;;;;9.18;7.85;;;;;;;;;;3545146;40;20507;-72
2021/04/16 00:59:53;;;;;;;7.80;7.10;;;;;;;;;;3545004;40;20396;-73
2021/04/16 01:02:19;;;;;;;9.45;8.57;;;;;;;;;;3545400;40;20457;-67
2021/04/16 01:07:22;;;;;;;8.48;7.65;;;;;;;;;;3566323;40;20421;-71
2021/04/16 01:09:49;;;;;;;8.05;7.35;;;;;;;;;;3558078;40;20748;-71
2021/04/16 01:12:16;;;;;;;9.38;8.48;;;;;;;;;;3548306;40;20423;-71
2021/04/16 01:14:44;;;;;;;9.90;9.00;;;;;;;;;;3558168;40;20356;-71
2021/04/16 01:17:11;;;;;;;8.90;8.07;;;;;;;;;;3548347;40;20466;-72
2021/04/16 01:19:40;;;;;;;8.60;7.70;;;;;;;;;;3558320;40;20375;-72
2021/04/16 01:22:08;;;;;;;9.73;8.73;;;;;;;;;;3536690;40;20403;-71
2021/04/16 01:24:35;;;;;;;8.80;7.90;;;;;;;;;;3536961;40;20426;-72
2021/04/16 01:27:10;;;;;;;8.23;7.43;;;;;;;;;;3536342;40;20675;-71
2021/04/16 01:29:38;;;;;;;8.07;7.38;;;;;;;;;;3537884;40;20478;-70
2021/04/16 01:32:04;;;;;;;8.85;7.97;;;;;;;;;;3538244;40;20522;-71
2021/04/16 01:34:30;;;;;;;9.02;8.13;;;;;;;;;;3537317;40;20426;-72
2021/04/16 01:36:58;;;;;;;8.70;7.80;;;;;;;;;;3538546;40;20458;-71
2021/04/16 01:39:25;;;;;;;7.63;6.93;;;;;;;;;;3538709;40;20824;-72
2021/04/16 01:41:52;;;;;;;6.97;6.38;;;;;;;;;;3538348;40;20371;-71
2021/04/16 01:44:19;;;;;;;7.50;6.35;;;;;;;;;;3538680;40;20378;-72
2021/04/16 01:46:50;;;;;;;6.72;6.13;;;;;;;;;;3538314;40;20418;-72
2021/04/16 01:49:16;;;;;;;6.47;5.88;;;;;;;;;;3538809;40;20371;-71
2021/04/16 01:51:43;;;;;;;6.50;5.90;;;;;;;;;;3528747;40;20817;-72
2021/04/16 01:54:10;;;;;;;7.38;6.22;;;;;;;;;;3540038;40;20401;-72
2021/04/16 01:56:37;;;;;;;6.68;6.07;;;;;;;;;;3548946;40;20741;-71
2021/04/16 01:59:05;;;;;;;6.47;5.80;;;;;;;;;;3548648;40;20401;-72
2021/04/16 02:01:31;;;;;;;6.18;5.57;;;;;;;;;;3549375;40;20421;-71
2021/04/16 02:03:57;;;;;;;5.72;5.22;;;;;;;;;;3550185;40;20388;-72
2021/04/16 02:06:23;;;;;;;6.95;6.30;;;;;;;;;;3550363;40;20463;-71
2021/04/16 02:08:50;;;;;;;5.85;5.30;;;;;;;;;;3555302;40;20731;-71
2021/04/16 02:11:16;;;;;;;6.10;5.50;;;;;;;;;;3548175;40;20408;-72
2021/04/16 02:13:42;;;;;;;6.32;5.72;;;;;;;;;;3550762;40;20361;-71
2021/04/16 02:16:09;;;;;;;5.75;5.25;;;;;;;;;;3550240;40;20619;-71
2021/04/16 02:18:36;;;;;;;6.10;5.60;;;;;;;;;;3548838;40;20416;-72
2021/04/16 02:21:02;;;;;;;8.23;7.43;;;;;;;;;;3549901;40;20448;-71
2021/04/16 02:23:28;;;;;;;7.22;6.53;;;;;;;;;;3550201;40;20727;-71
2021/04/16 02:25:54;;;;;;;7.30;6.57;;;;;;;;;;3540957;40;20432;-71
2021/04/16 02:28:21;;;;;;;7.27;6.67;;;;;;;;;;3548544;40;20421;-72
2021/04/16 02:30:47;;;;;;;6.43;5.82;;;;;;;;;;3549869;40;20361;-72
2021/04/16 02:33:14;;;;;;;7.03;6.32;;;;;;;;;;3550110;40;20354;-72
2021/04/16 02:35:43;;;;;;;7.32;6.63;;;;;;;;;;3550691;40;20408;-71
2021/04/16 02:38:09;;;;;;;7.50;6.53;;;;;;;;;;3552379;40;20377;-72
2021/04/16 02:40:35;;;;;;;6.60;6.00;;;;;;;;;;3550967;40;20354;-69
2021/04/16 02:43:02;;;;;;;7.13;6.53;;;;;;;;;;3551707;40;20358;-71
2021/04/16 02:45:28;;;;;;;6.72;6.10;;;;;;;;;;3543504;40;20358;-73
2021/04/16 02:47:54;;;;;;;7.55;6.85;;;;;;;;;;3554601;40;20475;-72
2021/04/16 02:50:23;;;;;;;7.85;7.15;;;;;;;;;;3561557;40;20363;-71
2021/04/16 02:52:49;;;;;;;6.78;6.18;;;;;;;;;;3562350;40;20379;-73
2021/04/16 02:55:15;;;;;;;6.45;5.82;;;;;;;;;;3563974;40;20360;-72
2021/04/16 02:57:42;;;;;;;8.38;7.18;;;;;;;;;;3566297;40;20356;-73
2021/04/16 03:00:08;;;;;;;8.30;7.60;;;;;;;;;;3565686;40;20399;-73
2021/04/16 03:02:35;;;;;;;9.35;8.20;;;;;;;;;;3565411;40;20362;-72
2021/04/16 03:05:01;;;;;;;8.70;7.80;;;;;;;;;;3565679;40;20435;-72
2021/04/16 03:07:28;;;;;;;10.17;9.17;;;;;;;;;;3565718;40;20371;-72
2021/04/16 03:09:54;;;;;;;10.93;9.93;;;;;;;;;;3569945;40;20434;-73
2021/04/16 03:12:20;;;;;;;9.57;8.67;;;;;;;;;;3562934;40;20645;-71
2021/04/16 03:14:46;;;;;;;11.60;10.50;;;6.20;99.90;;;;;;3574250;40;20476;-72
2021/04/16 03:17:12;;;;;;;11.95;10.82;;;5.40;99.90;;;;;;3573979;40;20714;-72
2021/04/16 03:19:39;;;;;;;11.02;9.93;;;;;;;;;;3573313;40;20357;-72
2021/04/16 03:22:05;;;;;;;13.07;11.77;;;;;;;;;;3573329;40;20693;-72
2021/04/16 03:24:32;;;;;;;12.35;11.10;;;;;;;;;;3555808;40;20399;-72
2021/04/16 03:26:58;;;;;;;12.83;11.47;;;5.50;99.90;;;;;;3572756;40;20783;-74
2021/04/16 03:29:24;;;;;;;10.27;9.27;;;;;;;;;;3552953;40;20393;-73
2021/04/16 03:31:50;;;;;;;9.50;8.60;;;;;;;;;;3553011;40;20369;-72
2021/04/16 03:34:17;;;;;;;10.60;9.60;;;;;;;;;;3544221;40;20444;-72
2021/04/16 03:36:43;;;;;;;10.10;9.10;;;;;;;;;;3552841;40;20401;-72
2021/04/16 03:39:09;;;;;;;9.23;8.35;;;;;;;;;;3552990;40;20427;-72
2021/04/16 03:41:36;;;;;;;8.27;7.47;;;;;;;;;;3553535;40;20786;-72
2021/04/16 03:44:02;;;;;;;8.23;7.43;;;;;;;;;;3553181;40;20790;-73
2021/04/16 03:46:29;;;;;;;8.43;7.53;;;;;;;;;;3552448;40;20369;-72
2021/04/16 03:48:55;;;;;;;7.45;6.75;;;;;;;;;;3553021;40;20440;-72
2021/04/16 03:51:21;;;;;;;8.20;7.50;;;;;;;;;;3553101;40;20354;-72
2021/04/16 03:53:47;;;;;;;7.40;6.50;;;;;;;;;;3551935;40;20400;-72
2021/04/16 03:56:14;;;;;;;9.18;7.25;;;;;;;;;;3542753;40;20486;-73
2021/04/16 03:58:42;;;;;;;9.23;7.57;;;;;;;;;;3542504;40;20410;-72
2021/04/16 04:01:08;;;;;;;11.45;8.27;;;;;;;;;;3559771;40;20371;-71
2021/04/16 04:03:35;;;;;;;9.57;7.72;;;;;;;;;;3563588;40;20390;-72
2021/04/16 04:06:01;;;;;;;9.13;8.15;;;;;;;;;;3562248;40;20419;-72
2021/04/16 04:08:27;;;;;;;8.73;7.57;;;;;;;;;;3561754;40;20403;-73
2021/04/16 04:10:53;;;;;;;8.52;7.63;;;;;;;;;;3563906;40;20379;-72
2021/04/16 04:13:20;;;;;;;9.18;7.97;;;;;;;;;;3555085;40;20773;-72
2021/04/16 04:15:47;;;;;;;7.75;6.95;;;;;;;;;;3563334;40;20772;-72
2021/04/16 04:18:13;;;;;;;7.82;6.95;;;;;;;;;;3554051;40;20354;-71
2021/04/16 04:20:40;;;;;;;7.25;6.45;;;;;;;;;;3554070;40;20357;-72
2021/04/16 04:23:07;;;;;;;6.80;6.10;;;;;;;;;;3554469;40;20358;-73
2021/04/16 04:25:33;;;;;;;6.72;6.05;;;;;;;;;;3554461;40;20360;-73
2021/04/16 04:28:00;;;;;;;6.25;5.65;;;;;;;;;;3553779;40;20650;-72
2021/04/16 04:30:28;;;;;;;6.87;5.97;;;;;;;;;;3554363;40;20421;-73
2021/04/16 04:32:55;;;;;;;7.03;6.00;;;;;;;;;;3554828;40;20401;-73
2021/04/16 04:35:22;;;;;;;6.60;5.95;;;;;;;;;;3552481;40;20425;-73
2021/04/16 04:37:49;;;;;;;8.23;6.00;;;;;;;;;;3553651;40;20358;-72
2021/04/16 04:40:17;;;;;;;7.95;6.18;;;;;;;;;;3551927;40;20794;-71
2021/04/16 04:42:43;;;;;;;6.63;5.93;;;;;;;;;;3552397;40;20827;-72
2021/04/16 04:45:10;;;;;;;6.40;5.80;;;5.20;99.90;;;;;;3553552;40;20349;-72
2021/04/16 04:47:36;;;;;;;7.25;6.47;;;6.50;99.90;;;;;;3553488;40;20404;-73
2021/04/16 04:50:05;;;;;;;7.10;6.50;;;6.50;99.90;;;;;;3553639;40;20369;-73
2021/04/16 04:52:33;;;;;;;7.25;6.55;;;6.40;99.90;;;;;;3553608;40;20357;-73
2021/04/16 04:55:03;;;;;;;7.55;6.65;;;6.20;99.90;;;;;;3553554;40;20444;-72
2021/04/16 04:57:30;;;;;;;7.10;6.40;;;6.20;99.90;;;;;;3553678;40;20372;-72
2021/04/16 04:59:56;;;;;;;6.90;6.20;;;6.10;99.90;;;;;;3553341;40;20402;-72
2021/04/16 05:02:24;;;;;;;7.78;6.15;;;6.10;99.90;;;;;;3553387;40;20361;-73
2021/04/16 05:04:51;;;;;;;6.85;6.15;;;6.20;99.90;;;;;;3553816;40;20467;-73
2021/04/16 05:07:18;;;;;;;7.13;5.80;;;6.40;99.90;;;;;;3554801;40;20385;-72
2021/04/16 05:09:44;;;;;;;7.17;5.70;;;6.30;99.90;;;;;;3555131;40;20364;-72
2021/04/16 05:12:11;;;;;;;5.93;5.32;;;6.20;99.90;;;;;;3543989;40;20361;-71
2021/04/16 05:14:37;;;;;;;5.80;5.15;;;6.30;99.90;;;;;;3553487;40;20361;-72
2021/04/16 05:17:04;;;;;;;5.38;4.70;;;6.30;99.90;;;;;;3559552;40;20655;-71
2021/04/16 05:19:30;;;;;;;5.93;4.63;;;6.40;99.90;;;;;;3554873;40;20471;-72
2021/04/16 05:21:58;;;;;;;5.68;5.03;;;6.40;99.90;;;;;;3565128;40;20380;-71
2021/04/16 05:24:25;;;;;;;5.30;4.80;;;6.50;99.90;;;;;;3565341;40;20765;-73
2021/04/16 05:26:51;;;;;;;7.65;5.30;;;6.50;99.90;;;;;;3565561;40;20391;-73
2021/04/16 05:29:18;;;;;;;5.55;4.97;;;6.50;99.90;;;;;;3565158;40;20450;-73
2021/04/16 05:31:44;;;;;;;6.83;5.13;;;;;;;;;;3565095;40;20440;-72
2021/04/16 05:34:10;;;;;;;6.05;5.45;;;;;;;;;;3565395;40;20442;-72
2021/04/16 05:36:36;;;;;;;6.30;5.70;;;;;;;;;;3565263;40;20356;-73
2021/04/16 05:39:02;;;;;;;6.35;5.75;;;;;;;;;;3565567;40;20355;-73
2021/04/16 05:41:31;;;;;;;5.97;5.32;;;;;;;;;;3565303;40;20356;-73
2021/04/16 05:43:57;;;;;;;6.22;5.63;;;;;;;;;;3564277;40;20414;-72
2021/04/16 05:46:23;;;;;;;5.93;5.40;;;;;;;;;;3563984;40;20422;-72
2021/04/16 05:48:49;;;;;;;6.10;5.32;;;;;;;;;;3565520;40;20348;-73
2021/04/16 05:51:15;;;;;;;5.78;5.25;;;;;;;;;;3565139;40;20410;-71
2021/04/16 05:53:42;;;;;;;6.50;5.82;;;;;;;;;;3564746;40;20632;-72
2021/04/16 05:56:08;;;;;;;6.38;5.78;;;;;;;;;;3565351;40;20426;-72
2021/04/16 05:58:35;;;;;;;6.05;5.30;;;;;;;;;;3565783;40;20358;-73
2021/04/16 06:01:01;;;;;;;6.75;5.20;;;;;;;;;;3565734;40;20356;-75
2021/04/16 06:03:27;;;;;;;6.00;5.32;;;;;;;;;;3565396;40;20435;-72
2021/04/16 06:05:56;;;;;;;6.68;5.97;;;;;;;;;;3565166;40;20383;-72
2021/04/16 06:08:22;;;;;;;6.05;5.45;;;;;;;;;;3555057;40;20447;-73
2021/04/16 06:10:49;;;;;;;7.00;6.30;;;;;;;;;;3555880;40;20702;-73
2021/04/16 06:13:15;;;;;;;6.75;5.13;;;;;;;;;;3555979;40;20413;-72
2021/04/16 06:15:42;;;;;;;6.70;5.30;;;;;;;;;;3545425;40;20836;-72
2021/04/16 06:18:09;;;;;;;7.03;6.00;;;;;;;;;;3560730;40;20383;-73
2021/04/16 06:20:35;;;;;;;9.63;6.95;;;;;;;;;;3556916;40;20382;-74
2021/04/16 06:23:01;;;;;;;6.70;6.10;;;;;;;;;;3558295;40;20361;-73
2021/04/16 06:25:30;;;;;;;6.10;5.30;;;;;;;;;;3556743;40;20411;-72
2021/04/16 06:27:57;;;;;;;6.30;5.47;;;6.50;99.90;;;;;;3556241;40;20650;-74
2021/04/16 06:30:24;;;;;;;6.20;5.60;;;7.10;99.90;;;;;;3554447;40;20415;-72
2021/04/16 06:33:00;;;;;;;6.45;5.35;;;;;;;;;;3556198;40;20395;-73
2021/04/16 06:35:26;;;;;;;8.38;6.18;;;;;;;;;;3547871;40;20701;-73
2021/04/16 06:37:53;;;;;;;7.35;5.90;;;;;;;;;;3556022;40;20378;-72
2021/04/16 06:40:19;;;;;;;7.27;6.00;;;;;;;;;;3554499;40;20532;-73
2021/04/16 06:42:46;;;;;;;6.35;5.75;;;;;;;;;;3546020;40;20413;-72
2021/04/16 06:45:16;;;;;;;6.53;5.90;;;7.10;99.90;;;;;;3553912;40;20365;-73
2021/04/16 06:47:48;;;;;;;6.97;6.27;;;7.40;99.90;;;;;;3552289;40;20401;-71
2021/04/16 06:50:15;;;;;;;7.70;6.60;;;7.40;99.90;;;;;;3550627;40;20761;-72
2021/04/16 06:52:49;;;;;;;7.45;6.10;;;7.30;99.90;;;;;;3549774;40;20378;-70
2021/04/16 06:55:18;;;;;;;8.50;6.95;;;;;;;;;;3548277;40;20642;-71
2021/04/16 06:57:47;;;;;;;6.18;5.57;;;;;;;;;;3548281;40;20519;-70
2021/04/16 07:00:19;;;;;;;4.60;3.63;;;;;;;;;;3549875;40;21761;-70
2021/04/16 07:02:48;;;;;;;6.07;5.30;;;;;;;;;;3559633;40;20355;-72
2021/04/16 07:05:22;;;;;;;8.63;6.82;;;;;;;;;;3558969;40;20395;-72
2021/04/16 07:07:50;;;;;;;9.13;6.70;;;;;;;;;;3559456;40;20380;-72
2021/04/16 07:10:17;;;;;;;9.40;7.10;;;;;;;;;;3551223;40;20388;-71
2021/04/16 07:12:45;;;;;;;7.45;5.75;;;;;;;;;;3532628;40;20694;-73
2021/04/16 07:15:14;;;;;;;7.15;5.88;;;;;;;;;;3551922;40;20357;-70
2021/04/16 07:17:43;;;;;;;6.70;5.50;;;;;;;;;;3549216;40;20393;-71
2021/04/16 07:20:10;;;;;;;5.97;5.38;;;;;;;;;;3557987;40;20411;-71
2021/04/16 07:22:40;;;;;;;7.47;6.70;;;;;;;;;;3560391;40;20383;-71
2021/04/16 07:25:12;;;;;;;7.55;6.47;;;;;;;;;;3551564;40;20425;-72
2021/04/16 07:27:46;;;;;;;7.53;6.83;;;;;;;;;;3560512;40;20384;-71
2021/04/16 07:30:26;;;;;;;8.38;7.30;;;;;;;;;;3560464;40;20733;-70
2021/04/16 07:32:52;;;;;;;7.70;6.72;;;;;;;;;;3561398;40;20442;-72
2021/04/16 07:35:23;;;;;;;7.40;6.50;;;;;;;;;;3572217;40;20357;-70
2021/04/16 07:37:57;;;;;;;6.97;6.27;;;;;;;;;;3570320;40;20345;-70
2021/04/16 07:40:24;;;;;;;7.22;6.10;;;;;;;;;;3559138;40;20367;-69
2021/04/16 07:42:51;;;;;;;7.20;6.50;;;;;;;;;;3559095;40;20356;-70
2021/04/16 07:45:20;;;;;;;7.85;7.05;;;;;;;;;;3549563;40;20414;-69
2021/04/16 07:47:48;;;;;;;7.80;7.00;;;;;;;;;;3559065;40;20453;-69
2021/04/16 07:50:26;;;;;;;8.75;7.82;;;;;;;;;;3559289;40;20370;-69
2021/04/16 07:52:53;;;;;;;8.57;7.45;;;;;;;;;;3561069;40;20362;-71
2021/04/16 07:55:23;;;;;;;8.48;7.10;;;;;;;;;;3560384;40;20367;-71
2021/04/16 07:58:00;;;;;;;8.93;6.90;;;;;;;;;;3561862;40;20352;-72
2021/04/16 08:00:28;;;;;;;7.75;7.03;;;;;;;;;;3539689;40;20796;-73
2021/04/16 08:03:03;;;;;;;7.35;6.65;;;;;;;;;;3515990;41;20862;-74
2021/04/16 08:05:31;;;;;;;7.28;6.22;;;;;;;;;;3525421;40;20390;-73
2021/04/16 08:08:12;;;;;;;6.10;5.50;;;;;;;;;;3516168;41;20490;-74
2021/04/16 08:10:38;;;;;;;6.80;5.05;;;;;;;;;;3497663;41;20423;-73
2021/04/16 08:13:09;;;;;;;5.57;5.00;;;;;;;;;;3516838;41;20754;-75
2021/04/16 08:15:35;;;;;;;7.40;5.70;;;;;;;;;;3498597;41;20386;-72
2021/04/16 08:18:11;;;;;;;5.90;4.68;;;;;;;;;;3498183;41;20387;-73
2021/04/16 08:20:43;;;;;;;7.43;5.47;;;;;;;;;;3495900;41;20558;-70
2021/04/16 08:23:12;;;;;;;5.97;5.22;;;;;;;;;;3491982;41;20391;-74
2021/04/16 08:25:41;;;;;;;7.23;5.40;;;;;;;;;;3491284;41;20896;-69
2021/04/16 08:28:08;;;;;;;7.22;5.85;;;;;;;;;;3484503;41;20412;-69
2021/04/16 08:30:42;;;;;;;6.50;5.53;;;;;;;;;;3493560;40;20515;-70
2021/04/16 08:33:15;;;;;;;6.63;5.97;;;;;;;;;;3528113;40;20376;-70
2021/04/16 08:35:45;;;;;;;7.07;5.88;;;;;;;;;;3518518;40;20377;-69
2021/04/16 08:38:14;;;;;;;7.18;6.03;;;;;;;;;;3512305;40;20369;-69
2021/04/16 08:40:42;;;;;;;6.88;6.20;;;;;;;;;;3528479;40;20364;-70
2021/04/16 08:43:11;;;;;;;6.95;6.22;;;;;;;;;;3529288;40;20952;-71
2021/04/16 08:45:39;;;;;;;6.93;6.33;;;;;;;;;;3518706;40;20378;-70
2021/04/16 08:48:13;;;;;;;7.10;6.40;;;;;;;;;;3518335;40;20359;-70
2021/04/16 08:50:42;;;;;;;6.75;6.05;;;;;;;;;;3519505;40;20449;-70
2021/04/16 08:53:09;;;;;;;8.00;6.38;;;;;;;;;;3524697;40;20448;-70
2021/04/16 08:55:37;;;;;;;7.82;7.03;;;;;;;;;;3528115;40;20427;-70
2021/04/16 08:58:05;;;;;;;9.90;8.00;;;;;;;;;;3519565;40;20370;-70
2021/04/16 09:00:33;;;;;;;9.07;6.77;;;;;;;;;;3528384;40;20801;-70
2021/04/16 09:03:00;;;;;;;7.10;6.10;;;;;;;;;;3542832;40;20395;-71
2021/04/16 09:05:27;;;;;;;7.18;6.35;;;;;;;;;;3559746;40;20375;-71
2021/04/16 09:07:56;;;;;;;7.07;6.38;;;;;;;;;;3559487;40;20383;-70
2021/04/16 09:10:43;;;;;;;6.32;5.70;;;8.30;99.90;;;;;;3556273;40;20763;-72
2021/04/16 09:13:36;;;;;;;8.25;6.75;;;;;;;;;;3549526;40;20362;-70
2021/04/16 09:16:21;;;;;;;7.68;6.88;;;;;;;;;;3559915;40;20352;-71
2021/04/16 09:18:48;;;;;;;7.03;6.30;;;;;;;;;;3552823;40;20349;-72
2021/04/16 09:21:24;;;;;;;6.90;5.90;;;8.80;99.90;;;;;;3552498;40;20398;-72
2021/04/16 09:24:09;;;;;;;5.72;5.22;;;9.00;99.90;;;;;;3549919;40;20413;-71
2021/04/16 09:27:03;;;;;;;5.90;5.30;;;9.10;99.90;;;;;;3551184;40;20769;-70
2021/04/16 09:29:37;;;;;;;6.07;4.68;;;;;;;;;;3551240;40;20638;-72
2021/04/16 09:32:04;;;;;;;5.10;4.60;;;9.20;99.90;;;;;;3550672;40;20377;-71
2021/04/16 09:34:51;;;;;;;5.80;5.00;;;9.70;99.90;;;;;;3549846;40;20365;-71
2021/04/16 09:37:27;;;;;;;5.67;4.93;;;9.90;99.90;;;;;;3549785;40;20894;-71
2021/04/16 09:40:29;;;;;;;6.32;4.85;;;10.00;99.90;;;;;;3551713;40;20397;-71
2021/04/16 09:42:57;;;;;;;6.80;4.80;;;10.30;99.90;;;;;;3517830;40;20445;-71
2021/04/16 09:45:46;;;;;;;4.88;4.10;;;10.40;99.10;;;;;;3498564;41;20461;-71
2021/04/16 09:48:25;;;;;;;4.97;4.50;;;10.60;97.40;;;;;;3517059;40;20373;-71
2021/04/16 09:51:33;;;;;;;5.10;4.60;;;10.80;96.90;;;;;;3508656;41;20879;-70
2021/04/16 09:54:25;;;;;;;5.50;4.28;;;10.80;95.50;;;;;;3520746;40;20890;-70
2021/04/16 09:57:38;;;;;;;3.78;3.38;;;10.60;95.20;;;;;;3512164;40;20919;-71
2021/04/16 10:00:54;;;;;;;3.90;3.50;;;10.50;94.80;;;;;;3551184;40;20372;-72
2021/04/16 10:03:22;;;;;;;3.30;2.73;;;10.60;93.30;;;;;;3550334;40;20405;-72
2021/04/16 10:05:49;;;;;;;3.60;2.72;;;10.70;92.30;;;;;;3549428;40;20365;-70
2021/04/16 10:08:23;;;;;;;3.30;2.97;;;10.90;92.00;;;;;;3549495;40;20369;-70
2021/04/16 10:10:49;;;;;;;3.40;2.60;;;10.90;91.10;;;;;;3549515;40;20365;-70
2021/04/16 10:13:20;;;;;;;5.75;3.63;;;10.60;91.20;;;;;;3549481;40;20449;-71
2021/04/16 10:15:50;;;;;;;3.33;2.80;;;10.20;90.80;;;;;;3557500;40;20798;-73
2021/04/16 10:18:26;;;;;;;5.07;3.00;;;10.30;90.60;;;;;;3550366;40;20452;-70
2021/04/16 10:20:56;;;;;;;3.28;2.97;;;10.30;90.40;;;;;;3555030;40;20364;-74
2021/04/16 10:23:25;;;;;;;4.82;2.95;;;10.00;88.20;;;;;;3562747;40;20851;-72
2021/04/16 11:28:29;;;;;;;4.13;2.83;;;10.10;90.00;;;;;;3549368;40;20365;-70
2021/04/16 12:39:14;;;;;;;3.00;2.05;;;;;;;;;;3558422;40;20370;-70
2021/04/16 12:41:46;;;;;;;2.47;2.05;;;;;;;;;;3558866;40;20734;-72
2021/04/16 12:44:23;;;;;;;2.63;1.73;;;13.90;62.80;;;;;;3558340;40;20386;-72
2021/04/16 12:46:50;;;;;;;3.08;1.90;;;14.00;63.40;;;;;;3559091;40;20402;-72
2021/04/16 12:49:16;;;;;;;3.10;2.00;;;13.80;63.40;;;;;;3550396;40;20582;-73
2021/04/16 12:51:42;;;;;;;2.50;1.75;;;13.50;64.20;;;;;;3563266;40;20360;-73
2021/04/16 12:54:08;;;;;;;2.90;1.80;;;13.90;61.20;;;;;;3569616;40;20378;-72
2021/04/16 12:56:37;;;;;;;3.10;2.00;;;13.90;62.30;;;;;;3561860;40;20369;-71
2021/04/16 12:59:08;;;;;;;1.60;1.50;;;13.60;62.40;;;;;;3563982;40;20382;-72
2021/04/16 13:01:35;;;;;;;3.38;1.95;;;;;;;;;;3567504;40;20360;-71
2021/04/16 13:04:01;;;;;;;2.50;1.85;;;13.40;63.50;;;;;;3568207;40;20413;-72
2021/04/16 13:06:28;;;;;;;2.05;1.67;;;;;;;;;;3568396;40;20390;-72
2021/04/16 13:08:54;;;;;;;3.22;1.50;;;14.20;61.00;;;;;;3569256;40;20370;-71
2021/04/16 13:11:21;;;;;;;2.03;1.70;;;14.50;61.50;;;;;;3574228;40;20378;-71
2021/04/16 13:13:48;;;;;;;2.40;1.60;;;14.40;58.70;;;;;;3571338;40;20687;-71
2021/04/16 13:16:14;;;;;;;1.97;1.70;;;14.60;61.60;;;;;;3568290;40;20384;-72
2021/04/16 13:18:43;;;;;;;3.03;1.70;;;14.70;60.60;;;;;;3559300;40;20356;-72
2021/04/16 13:21:16;;;;;;;2.72;1.73;;;14.70;58.90;;;;;;3563987;40;20457;-72
2021/04/16 13:23:43;;;;;;;2.72;1.77;;;14.70;56.80;;;;;;3528750;40;20518;-70
2021/04/16 13:26:09;;;;;;;2.63;1.90;;;;;;;;;;3548102;40;20424;-73
2021/04/16 13:28:35;;;;;;;3.42;2.38;;;;;;;;;;3540871;40;20366;-72
2021/04/16 13:31:02;;;;;;;1.95;1.80;;;;;;;;;;3538033;40;20407;-71
2021/04/16 13:33:28;;;;;;;3.25;2.13;;;;;;;;;;3531223;40;20384;-73
2021/04/16 13:35:56;;;;;;;4.72;2.40;;;;;;;;;;3528709;40;20388;-71
2021/04/16 13:38:23;;;;;;;3.58;1.90;;;;;;;;;;3528069;40;20373;-70
2021/04/16 13:40:50;;;;;;;2.63;1.73;;;;;;;;;;3527945;40;20432;-70
2021/04/16 13:43:16;;;;;;;3.05;2.15;;;;;;;;;;3527493;40;20408;-70
2021/04/16 13:45:42;;;;;;;2.13;1.80;;;;;;;;;;3528774;40;20389;-71
2021/04/16 13:48:09;;;;;;;3.85;2.10;;;;;;;;;;3520068;40;20384;-70
2021/04/16 13:50:36;;;;;;;2.33;1.73;;;;;;;;;;3513090;40;20526;-73
2021/04/16 13:53:03;;;;;;;2.38;1.58;;;;;;;;;;3521772;40;20394;-73
2021/04/16 13:55:30;;;;;;;3.22;2.08;;;;;;;;;;3521271;40;20802;-73
2021/04/16 13:57:56;;;;;;;2.97;1.97;;;;;;;;;;3542064;40;20811;-73
2021/04/16 14:00:23;;;;;;;2.00;1.38;;;;;;;;;;3540641;40;20356;-71
2021/04/16 14:02:52;;;;;;;3.33;2.10;;;14.60;58.50;;;;;;3539680;40;20431;-71
2021/04/16 14:05:21;;;;;;;2.00;1.60;;;14.50;63.50;;;;;;3539762;40;20479;-72
2021/04/16 14:07:50;;;;;;;2.28;1.63;;;14.50;64.30;;;;;;3540927;40;20386;-73
2021/04/16 14:10:20;;;;;;;2.00;1.80;;;14.90;60.60;;;;;;3527633;40;20393;-73
2021/04/16 14:12:46;;;;;;;2.28;1.77;;;;;;;;;;3549697;40;20412;-73
2021/04/16 14:15:14;;;;;;;4.70;2.13;;;15.70;55.20;;;;;;3551774;40;20646;-73
2021/04/16 14:17:42;;;;;;;3.10;2.00;;;15.70;56.00;;;;;;3548815;40;20401;-71
2021/04/16 14:20:15;;;;;;;2.88;2.20;;;15.40;56.20;;;;;;3545150;40;20751;-72
2021/04/16 14:22:45;;;;;;;2.73;2.00;;;15.10;56.30;;;;;;3528509;40;20669;-72
2021/04/16 14:25:13;;;;;;;3.10;1.70;;;14.90;57.00;;;;;;3518722;40;20402;-71
2021/04/16 14:27:41;;;;;;;2.80;1.80;;;;;;;;;;3524067;40;20432;-72
2021/04/16 14:30:10;;;;;;;2.90;2.28;;;;;;;;;;3533085;40;20894;-72
2021/04/16 14:32:36;;;;;;;2.63;1.77;;;;;;;;;;3528770;40;20577;-73
2021/04/16 14:35:02;;;;;;;3.08;2.08;;;;;;;;;;3538425;40;20391;-71
2021/04/16 14:37:29;;;;;;;2.30;1.58;;;;;;;;;;3538249;40;20401;-73
2021/04/16 14:39:55;;;;;;;1.67;1.58;;;14.80;55.90;;;;;;3528031;40;20534;-72
2021/04/16 14:42:21;;;;;;;1.73;1.43;;;14.90;58.40;;;;;;3529215;40;20495;-72
2021/04/16 14:44:48;;;;;;;1.80;1.48;;;15.10;57.10;;;;;;3530569;40;20432;-73
2021/04/16 14:47:14;;;;;;;2.20;1.77;;;15.30;56.30;;;;;;3520174;40;20421;-72
2021/04/16 14:49:40;;;;;;;2.30;1.60;;;15.10;57.80;;;;;;3519879;40;20366;-73
2021/04/16 14:52:10;;;;;;;4.40;1.50;;;15.00;57.10;;;;;;3521144;40;20412;-73
2021/04/16 14:54:46;;;;;;;2.90;1.80;;;14.90;55.80;;;;;;3553759;40;20387;-73
2021/04/16 14:57:22;;;;;;;2.90;1.50;;;14.70;57.60;;;;;;3539143;40;20728;-72
2021/04/16 14:59:50;;;;;;;3.03;1.73;;;14.60;57.30;;;;;;3539201;40;20478;-73
2021/04/16 15:02:16;;;;;;;1.98;1.48;;;14.70;56.30;;;;;;3554033;40;20399;-74
2021/04/16 15:04:42;;;;;;;2.75;1.60;;;14.70;56.80;;;;;;3548852;40;20479;-73
2021/04/16 15:07:10;;;;;;;3.10;1.63;;;14.70;55.70;;;;;;3558787;40;20812;-73
2021/04/16 15:09:39;;;;;;;2.00;1.30;;;;;;;;;;3545656;40;20659;-73
2021/04/16 15:12:06;;;;;;;2.58;1.70;;;;;;;;;;3539444;40;20375;-73
2021/04/16 15:14:33;;;;;;;3.42;1.90;;;;;;;;;;3539430;40;20640;-73
2021/04/16 15:17:00;;;;;;;3.45;2.00;;;;;;;;;;3545944;40;20406;-73
2021/04/16 15:19:28;;;;;;;3.78;1.63;;;;;;;;;;3561466;40;20748;-72
2021/04/16 15:21:54;;;;;;;2.05;1.85;;;;;;;;;;3551506;40;20356;-73
2021/04/16 15:24:21;;;;;;;2.63;2.00;;;;;;;;;;3543110;40;20409;-74
2021/04/16 15:26:47;;;;;;;3.35;2.35;;;;;;;;;;3544616;40;20421;-73
2021/04/16 15:29:20;;;;;;;4.57;2.53;;;;;;;;;;3553107;40;20448;-73
2021/04/16 15:31:46;;;;;;;3.70;2.58;;;;;;;;;;3551117;40;20494;-73
2021/04/16 15:47:45;;;;;;;2.10;1.92;;;;;;;;;;3545865;40;20394;-73
2021/04/16 15:50:13;;;;;;;4.30;1.80;;;;;;;;;;3545604;40;20418;-74
2021/04/16 15:52:40;;;;;;;2.30;1.60;;;;;;;;;;3545527;40;20417;-73
2021/04/16 15:55:07;;;;;;;2.15;1.95;;;;;;;;;;3555044;40;20370;-73
2021/04/16 15:57:37;;;;;;;2.50;2.30;;;;;;;;;;3544812;40;20351;-73
2021/04/16 16:00:04;;;;;;;3.10;2.15;;;;;;;;;;3554914;40;20365;-74
2021/04/16 16:02:31;;;;;;;3.30;2.30;;;;;;;;;;3550794;40;20358;-73
2021/04/16 16:04:57;;;;;;;3.40;2.40;;;;;;;;;;3552348;40;20487;-72
2021/04/16 16:07:24;;;;;;;2.97;2.20;;;;;;;;;;3552130;40;20747;-73
2021/04/16 16:09:52;;;;;;;3.65;2.45;;;;;;;;;;3551688;40;20365;-73
2021/04/16 16:12:19;;;;;;;2.50;2.22;;;;;;;;;;3543133;40;20805;-74
2021/04/16 16:14:47;;;;;;;18.45;14.85;;;;;;;;;;3551987;40;20365;-72
2021/04/16 16:17:18;;;;;;;45.97;33.67;;;;;;;;;;3532051;40;20487;-73
2021/04/16 16:19:45;;;;;;;11.82;9.00;;;;;;;;;;3541086;40;20768;-74
2021/04/16 16:22:11;;;;;;;3.85;2.22;;;;;;;;;;3538865;40;20413;-73
2021/04/16 16:24:38;;;;;;;3.08;2.35;;;;;;;;;;3529658;40;20475;-72
2021/04/16 16:27:06;;;;;;;3.28;2.13;;;;;;;;;;3529335;40;20414;-74
2021/04/16 16:29:33;;;;;;;3.23;2.93;;;;;;;;;;3529806;40;20769;-73
2021/04/16 16:32:02;;;;;;;2.45;2.15;;;;;;;;;;3543186;40;20421;-73
2021/04/16 16:34:30;;;;;;;2.75;1.80;;;;;;;;;;3539557;40;20410;-74
2021/04/16 16:36:57;;;;;;;2.17;1.60;;;;;;;;;;3539129;40;20564;-73
2021/04/16 16:39:23;;;;;;;3.53;2.40;;;;;;;;;;3539115;40;20402;-72
2021/04/16 16:41:50;;;;;;;2.05;1.92;;;;;;;;;;3549115;40;20380;-72
2021/04/16 16:44:21;;;;;;;2.80;2.50;;;;;;;;;;3548911;40;20365;-73
2021/04/16 16:46:47;;;;;;;3.50;2.40;;;;;;;;;;3539070;40;20765;-73